createdAt,value
2023-07-25T00:01:16.846Z,3.70
2023-07-25T00:06:13.320Z,4.45
2023-07-25T00:11:14.696Z,8.73
2023-07-25T00:16:11.657Z,5.40
2023-07-25T00:21:08.119Z,8.63
2023-07-25T00:26:04.494Z,6.85
2023-07-25T00:31:07.705Z,6.85
2023-07-25T00:36:04.389Z,7.97
2023-07-25T00:41:01.303Z,7.30
2023-07-25T00:45:58.141Z,5.63
2023-07-25T00:50:54.554Z,7.85
2023-07-25T00:55:51.279Z,10.23
2023-07-25T01:00:47.787Z,6.32
2023-07-25T01:05:47.908Z,10.90
2023-07-25T01:10:44.326Z,12.25
2023-07-25T01:15:40.969Z,8.25
2023-07-25T01:20:37.813Z,5.82
2023-07-25T01:25:34.195Z,7.78
2023-07-25T01:30:31.906Z,11.32
2023-07-25T01:35:28.464Z,8.02
2023-07-25T01:40:24.932Z,7.30
2023-07-25T01:45:21.394Z,12.35
2023-07-25T01:50:18.301Z,4.68
2023-07-25T01:55:14.833Z,7.07
2023-07-25T02:00:11.854Z,11.23
2023-07-25T02:05:08.498Z,11.80
2023-07-25T02:10:05.386Z,9.45
2023-07-25T02:15:01.832Z,5.68
2023-07-25T02:19:58.224Z,7.93
2023-07-25T02:24:54.672Z,11.35
2023-07-25T02:29:52.145Z,8.13
2023-07-25T02:34:48.626Z,7.45
2023-07-25T02:39:45.216Z,7.22
2023-07-25T02:44:41.621Z,6.40
2023-07-25T02:49:38.156Z,14.27
2023-07-25T02:54:34.755Z,7.20
2023-07-25T02:59:31.177Z,7.18
2023-07-25T03:04:27.703Z,9.68
2023-07-25T03:09:24.129Z,8.25
2023-07-25T03:14:21.162Z,10.18
2023-07-25T03:19:17.607Z,6.53
2023-07-25T03:24:14.022Z,5.28
2023-07-25T03:29:10.795Z,11.63
2023-07-25T03:34:08.250Z,8.30
2023-07-25T03:39:04.728Z,8.20
2023-07-25T03:44:01.162Z,5.22
2023-07-25T03:48:59.256Z,9.00
2023-07-25T03:58:52.082Z,6.22
2023-07-25T04:03:48.676Z,4.60
2023-07-25T04:08:45.932Z,3.58
2023-07-25T04:13:42.442Z,2.77
2023-07-25T04:18:39.017Z,3.65
2023-07-25T04:23:35.463Z,6.57
2023-07-25T04:28:32.744Z,7.45
2023-07-25T04:33:29.402Z,7.90
2023-07-25T04:38:25.859Z,6.65
2023-07-25T04:43:22.305Z,6.00
2023-07-25T04:48:18.940Z,12.18
2023-07-25T04:53:15.432Z,8.50
2023-07-25T04:58:12.553Z,10.13
2023-07-25T05:03:09.042Z,17.05
2023-07-25T05:08:05.665Z,8.50
2023-07-25T05:13:02.476Z,11.45
2023-07-25T05:17:58.965Z,16.23
2023-07-25T05:22:55.494Z,19.48
2023-07-25T05:27:51.958Z,13.57
2023-07-25T05:32:50.231Z,9.38
2023-07-25T05:37:46.701Z,18.52
2023-07-25T05:42:43.199Z,11.48
2023-07-25T05:47:39.754Z,18.55
2023-07-25T05:52:36.176Z,17.30
2023-07-25T05:57:32.673Z,13.77
2023-07-25T06:02:29.122Z,12.70
2023-07-25T06:07:25.606Z,18.33
2023-07-25T06:12:22.072Z,14.68
2023-07-25T06:17:18.720Z,13.25
2023-07-25T06:22:16.016Z,10.98
2023-07-25T06:27:12.440Z,12.93
2023-07-25T06:32:09.135Z,6.53
2023-07-25T06:37:06.050Z,7.72
2023-07-25T06:42:02.492Z,13.95
2023-07-25T06:46:58.963Z,16.38
2023-07-25T06:51:57.237Z,17.23
2023-07-25T06:56:53.639Z,5.60
2023-07-25T07:01:50.136Z,10.55
2023-07-25T07:06:46.679Z,9.88
2023-07-25T07:11:43.158Z,11.32
2023-07-25T07:16:39.616Z,7.75
2023-07-25T07:21:36.078Z,7.25
2023-07-25T07:26:35.375Z,11.93
2023-07-25T07:31:32.191Z,9.50
2023-07-25T07:36:28.838Z,7.10
2023-07-25T07:41:25.302Z,6.15
2023-07-25T07:46:21.869Z,7.45
2023-07-25T07:51:18.510Z,10.38
2023-07-25T07:56:14.922Z,2.25
2023-07-25T08:01:18.980Z,5.72
2023-07-25T08:06:15.414Z,2.30
2023-07-25T08:11:11.900Z,8.38
2023-07-25T08:16:08.466Z,5.88
2023-07-25T08:21:05.560Z,2.05
2023-07-25T08:26:09.700Z,2.57
2023-07-25T08:31:09.078Z,4.55
2023-07-25T08:36:05.588Z,5.28
2023-07-25T08:41:20.174Z,6.55
2023-07-25T08:46:20.756Z,9.00
2023-07-25T08:51:22.771Z,6.68
2023-07-25T08:56:20.009Z,4.38
2023-07-25T09:01:16.625Z,5.17
2023-07-25T09:06:14.468Z,7.15
2023-07-25T09:16:08.096Z,1.90
2023-07-25T09:21:04.806Z,4.70
2023-07-25T09:26:07.863Z,5.00
2023-07-25T09:31:05.984Z,5.40
2023-07-25T09:36:02.437Z,6.45
2023-07-25T09:40:59.197Z,6.80
2023-07-25T09:45:56.612Z,5.20
2023-07-25T09:50:53.080Z,5.38
2023-07-25T09:55:49.684Z,7.07
2023-07-25T10:00:47.577Z,4.25
2023-07-25T10:10:44.427Z,6.40
2023-07-25T10:15:42.046Z,3.13
2023-07-25T10:20:38.528Z,2.25
2023-07-25T10:25:35.528Z,2.40
2023-07-25T10:30:34.286Z,2.47
2023-07-25T10:35:42.856Z,5.47
2023-07-25T10:40:57.847Z,3.28
2023-07-25T10:45:55.523Z,4.55
2023-07-25T10:50:52.942Z,3.58
2023-07-25T10:56:07.897Z,4.75
2023-07-25T11:01:07.421Z,2.50
2023-07-25T11:11:04.661Z,7.95
2023-07-25T11:21:06.416Z,4.82
2023-07-25T11:26:05.102Z,3.92
2023-07-25T11:31:01.723Z,3.35
2023-07-25T11:35:58.446Z,4.20
2023-07-25T11:40:56.052Z,1.63
2023-07-25T11:45:53.910Z,4.45
2023-07-25T11:55:49.200Z,4.17
2023-07-25T12:00:52.405Z,1.88
2023-07-25T12:05:56.313Z,8.13
2023-07-25T12:10:52.759Z,2.00
2023-07-25T12:15:53.245Z,1.95
2023-07-25T12:20:57.946Z,4.32
2023-07-25T12:25:56.965Z,3.58
2023-07-25T12:30:53.769Z,6.57
2023-07-25T12:35:51.776Z,2.63
2023-07-25T12:40:48.308Z,4.40
2023-07-25T12:45:46.315Z,4.43
2023-07-25T12:50:42.820Z,4.22
2023-07-25T12:55:39.651Z,3.15
2023-07-25T13:00:36.247Z,5.63
2023-07-25T13:05:32.814Z,2.53
2023-07-25T13:10:30.282Z,11.23
2023-07-25T13:15:26.845Z,4.80
2023-07-25T13:20:23.723Z,2.65
2023-07-25T13:25:20.785Z,4.43
2023-07-25T13:30:17.326Z,1.13
2023-07-25T13:35:13.795Z,5.00
2023-07-25T13:40:10.398Z,2.85
2023-07-25T13:45:07.456Z,5.18
2023-07-25T13:50:04.130Z,8.30
2023-07-25T13:55:00.766Z,5.25
2023-07-25T13:59:57.390Z,5.35
2023-07-25T14:04:53.843Z,5.63
2023-07-25T14:09:50.344Z,0.85
2023-07-25T14:14:46.824Z,1.75
2023-07-25T14:19:43.831Z,5.38
2023-07-25T14:24:40.299Z,4.95
2023-07-25T14:29:36.949Z,6.00
2023-07-25T14:34:33.525Z,3.03
2023-07-25T14:39:29.916Z,5.82
2023-07-25T14:44:26.370Z,4.05
2023-07-25T14:49:22.798Z,2.33
2023-07-25T14:54:19.236Z,2.70
2023-07-25T14:59:15.725Z,2.33
2023-07-25T15:04:12.164Z,1.48
2023-07-25T15:09:08.829Z,4.43
2023-07-25T15:14:05.426Z,1.10
2023-07-25T15:19:02.047Z,4.97
2023-07-25T15:23:58.444Z,2.88
2023-07-25T15:28:54.839Z,2.58
2023-07-25T15:33:51.418Z,1.10
2023-07-25T15:38:48.076Z,0.85
2023-07-25T15:43:44.832Z,1.08
2023-07-25T15:48:41.433Z,3.80
2023-07-25T15:53:37.969Z,0.50
2023-07-25T15:58:34.415Z,0.90
2023-07-25T16:03:30.911Z,0.63
2023-07-25T16:08:27.394Z,6.57
2023-07-25T16:13:23.797Z,2.28
2023-07-25T16:18:20.318Z,0.65
2023-07-25T16:23:16.755Z,3.25
2023-07-25T16:28:13.337Z,2.38
2023-07-25T16:33:10.011Z,1.33
2023-07-25T16:38:06.497Z,1.13
2023-07-25T16:43:05.679Z,1.85
2023-07-25T16:48:04.614Z,0.98
2023-07-25T16:53:02.127Z,2.53
2023-07-25T16:57:58.558Z,2.42
2023-07-25T17:02:55.266Z,2.00
2023-07-25T17:07:51.745Z,1.60
2023-07-25T17:12:48.228Z,0.68
2023-07-25T17:17:45.820Z,1.30
2023-07-25T17:27:39.408Z,2.70
2023-07-25T17:32:36.402Z,2.92
2023-07-25T17:37:34.326Z,0.70
2023-07-25T17:42:31.534Z,3.78
2023-07-25T17:47:28.042Z,2.63
2023-07-25T17:52:24.493Z,3.38
2023-07-25T17:57:20.941Z,1.00
2023-07-25T18:02:17.460Z,2.83
2023-07-25T18:07:13.856Z,1.25
2023-07-25T18:12:10.273Z,1.80
2023-07-25T18:17:07.068Z,4.68
2023-07-25T18:22:04.642Z,0.73
2023-07-25T18:27:01.187Z,4.13
2023-07-25T18:31:57.592Z,4.43
2023-07-25T18:36:53.999Z,2.63
2023-07-25T18:41:50.492Z,4.40
2023-07-25T18:46:47.288Z,1.27
2023-07-25T18:51:43.825Z,1.33
2023-07-25T18:56:40.226Z,0.93
2023-07-25T19:01:36.936Z,3.92
2023-07-25T19:06:33.767Z,3.10
2023-07-25T19:11:31.332Z,3.10
2023-07-25T19:16:27.812Z,2.33
2023-07-25T19:21:24.688Z,1.63
2023-07-25T19:26:21.411Z,1.10
2023-07-25T19:31:17.893Z,0.60
2023-07-25T19:36:14.481Z,2.38
2023-07-25T19:41:18.644Z,3.28
2023-07-25T19:46:15.123Z,1.33
2023-07-25T19:51:13.641Z,3.65
2023-07-25T19:56:10.199Z,0.90
2023-07-25T20:01:08.324Z,0.60
2023-07-25T20:06:09.430Z,1.00
2023-07-25T20:11:05.892Z,3.33
2023-07-25T20:16:03.620Z,2.42
2023-07-25T20:21:11.016Z,1.45
2023-07-25T20:26:08.262Z,0.40
2023-07-25T20:31:04.831Z,4.38
2023-07-25T20:36:02.122Z,3.03
2023-07-25T20:40:58.549Z,1.43
2023-07-25T20:45:55.002Z,0.95
2023-07-25T20:50:51.413Z,1.70
2023-07-25T20:55:47.875Z,0.60
2023-07-25T21:00:44.310Z,0.98
2023-07-25T21:05:40.755Z,1.45
2023-07-25T21:10:37.181Z,3.30
2023-07-25T21:15:33.607Z,1.20
2023-07-25T21:20:30.152Z,0.75
2023-07-25T21:25:26.630Z,1.52
2023-07-25T21:30:23.119Z,1.58
2023-07-25T21:35:22.285Z,1.42
2023-07-25T21:40:18.862Z,2.28
2023-07-25T21:45:15.350Z,1.30
2023-07-25T21:50:12.689Z,2.58
2023-07-25T21:55:09.654Z,0.87
2023-07-25T22:00:07.298Z,1.17
2023-07-25T22:05:04.395Z,1.17
2023-07-25T22:10:01.060Z,4.25
2023-07-25T22:14:57.480Z,1.15
2023-07-25T22:19:53.887Z,1.98
2023-07-25T22:24:50.351Z,3.22
2023-07-25T22:29:46.862Z,2.22
2023-07-25T22:34:43.279Z,1.77
2023-07-25T22:39:39.713Z,1.05
2023-07-25T22:44:36.506Z,1.85
2023-07-25T22:49:33.326Z,1.00
2023-07-25T22:54:29.736Z,2.53
2023-07-25T22:59:27.573Z,1.20
2023-07-25T23:04:24.018Z,1.08
2023-07-25T23:09:20.458Z,1.58
2023-07-25T23:14:19.654Z,1.42
2023-07-25T23:19:16.176Z,0.88
2023-07-25T23:24:12.637Z,1.10
2023-07-25T23:29:09.061Z,2.65
2023-07-25T23:34:05.473Z,4.53
2023-07-25T23:39:02.480Z,1.27
2023-07-25T23:43:58.979Z,1.17
2023-07-25T23:48:55.538Z,3.08
2023-07-25T23:53:52.302Z,3.80
2023-07-25T23:58:48.912Z,0.90
